^^
Grace C. Lehan Memorial Weather Station Historical Data
Daily Summary for April 13, 2022 Units:  English    Metric   Both
Daily Weekly Monthly Yearly
  High: Low: Average:
Temperature: 80.2 °F 66.6 °F 73.7 °F
Dew Point: 74 °F 58.3 °F 70 °F
Humidity: 96% 73% 89%
Wind Speed: 2.6mph 0mph 0.1mph
Wind Gust: 11mph - -
Wind- - SW
Pressure: 29.78 in 29.63 in -
Precipitation: 0.43 in    
 
 
Tabular Data for April 13, 2022
Time Temperature Dew Point Pressure Wind Wind Speed Wind Gust Humidity Rainfall Rate (Hourly) solar
00:00 71 °F 68.6 °F 29.77 in Calm     92% 0.00 in 0 W/m2
00:09 70.9 °F 68.5 °F 29.78 in Calm     92% 0.00 in 0 W/m2
00:14 70.8 °F 68.4 °F 29.78 in Calm     92% 0.00 in 0 W/m2
00:19 70.8 °F 68.4 °F 29.78 in Calm     92% 0.00 in 0 W/m2
00:24 70.8 °F 68.6 °F 29.78 in Calm     92.8% 0.00 in 0 W/m2
00:29 70.8 °F 68.7 °F 29.77 in Calm     93% 0.00 in 0 W/m2
00:34 70.8 °F 68.7 °F 29.77 in Calm     93% 0.00 in 0 W/m2
00:39 70.8 °F 68.7 °F 29.77 in Calm     93% 0.00 in 0 W/m2
00:44 70.8 °F 68.7 °F 29.77 in Calm     93% 0.00 in 0 W/m2
00:49 70.8 °F 68.7 °F 29.76 in Calm     93% 0.00 in 0 W/m2
00:54 70.8 °F 68.7 °F 29.76 in Calm     93% 0.00 in 0 W/m2
00:59 70.8 °F 68.7 °F 29.76 in Calm     93% 0.00 in 0 W/m2
01:04 70.8 °F 68.7 °F 29.76 in Calm     93% 0.00 in 0 W/m2
01:09 70.8 °F 68.7 °F 29.76 in Calm     93% 0.00 in 0 W/m2
01:14 70.7 °F 68.6 °F 29.76 in Calm     93% 0.00 in 0 W/m2
01:19 70.7 °F 68.6 °F 29.76 in Calm     93% 0.00 in 0 W/m2
01:24 70.7 °F 68.6 °F 29.76 in Calm     93.1% 0.00 in 0 W/m2
01:29 70.7 °F 68.6 °F 29.76 in Calm     93.2% 0.00 in 0 W/m2
01:34 70.7 °F 68.6 °F 29.76 in Calm     93% 0.00 in 0 W/m2
01:39 70.7 °F 68.8 °F 29.77 in Calm     93.8% 0.00 in 0 W/m2
01:44 70.6 °F 68.8 °F 29.77 in Calm     94% 0.00 in 0 W/m2
01:49 70.7 °F 68.9 °F 29.76 in Calm     94% 0.00 in 0 W/m2
01:54 70.7 °F 68.9 °F 29.76 in Calm     94% 0.00 in 0 W/m2
01:59 70.7 °F 68.9 °F 29.76 in Calm     94% 0.00 in 0 W/m2
02:04 70.7 °F 68.9 °F 29.76 in Calm     94% 0.00 in 0 W/m2
02:09 70.7 °F 68.9 °F 29.76 in Calm     94% 0.00 in 0 W/m2
02:14 70.7 °F 68.9 °F 29.76 in Calm     94% 0.00 in 0 W/m2
02:19 70.7 °F 68.9 °F 29.76 in Calm     94% 0.00 in 0 W/m2
02:24 70.7 °F 68.9 °F 29.76 in Calm     94% 0.00 in 0 W/m2
02:29 70.7 °F 68.9 °F 29.76 in Calm     94% 0.00 in 0 W/m2
02:34 70.7 °F 68.9 °F 29.76 in Calm     94% 0.00 in 0 W/m2
02:39 70.7 °F 68.9 °F 29.76 in Calm     94% 0.00 in 0 W/m2
02:44 70.6 °F 68.8 °F 29.75 in Calm     94% 0.00 in 0 W/m2
02:49 70.6 °F 68.8 °F 29.75 in Calm     94% 0.00 in 0 W/m2
02:54 70.6 °F 68.8 °F 29.75 in Calm     94% 0.00 in 0 W/m2
02:59 70.5 °F 68.7 °F 29.75 in Calm     94% 0.00 in 0 W/m2
03:04 70.5 °F 68.7 °F 29.75 in Calm     94% 0.00 in 0 W/m2
03:09 70.4 °F 68.6 °F 29.75 in Calm     94% 0.00 in 0 W/m2
03:14 70.4 °F 68.6 °F 29.74 in Calm     94% 0.00 in 0 W/m2
03:19 70.4 °F 68.6 °F 29.74 in Calm     94% 0.00 in 0 W/m2
03:24 70.4 °F 68.6 °F 29.74 in Calm     94% 0.00 in 0 W/m2
03:29 70.4 °F 68.7 °F 29.74 in Calm     94.2% 0.00 in 0 W/m2
03:34 70.4 °F 68.8 °F 29.74 in Calm     94.7% 0.00 in 0 W/m2
03:39 70.4 °F 68.9 °F 29.73 in Calm     95% 0.00 in 0 W/m2
03:44 70.4 °F 68.9 °F 29.73 in Calm     95% 0.00 in 0 W/m2
03:49 70.3 °F 68.8 °F 29.74 in Calm     95% 0.00 in 0 W/m2
03:54 70.3 °F 68.8 °F 29.73 in Calm     95% 0.00 in 0 W/m2
03:59 70.3 °F 68.8 °F 29.73 in Calm     95% 0.00 in 0 W/m2
04:00 70.2 °F 68.7 °F 29.73 in Calm     95% 0.00 in 0 W/m2
04:09 70.2 °F 68.7 °F 29.73 in Calm     95% 0.00 in 0 W/m2
04:14 70.1 °F 68.4 °F 29.73 in Calm     94.4% 0.00 in 0 W/m2
04:19 70 °F 68.4 °F 29.73 in Calm     94.5% 0.00 in 0 W/m2
04:24 70 °F 68.5 °F 29.74 in Calm     95% 0.00 in 0 W/m2
04:29 70 °F 68.5 °F 29.74 in Calm     95% 0.00 in 0 W/m2
04:34 69.9 °F 68.4 °F 29.74 in Calm     95% 0.00 in 0 W/m2
04:39 69.9 °F 68.4 °F 29.74 in Calm     95% 0.00 in 0 W/m2
04:44 69.9 °F 68.4 °F 29.74 in Calm     95% 0.00 in 0 W/m2
04:49 69.9 °F 68.4 °F 29.74 in Calm     95% 0.00 in 0 W/m2
04:54 70 °F 68.5 °F 29.74 in Calm     95% 0.00 in 0 W/m2
04:59 70 °F 68.5 °F 29.74 in Calm     95% 0.00 in 0 W/m2
05:04 70 °F 68.5 °F 29.73 in Calm     95% 0.00 in 0 W/m2
05:09 70 °F 68.5 °F 29.74 in Calm     95% 0.01 in 0 W/m2
05:14 70 °F 68.5 °F 29.74 in Calm     95% 0.01 in 0 W/m2
05:19 70.1 °F 68.6 °F 29.73 in Calm     95% 0.02 in 0 W/m2
05:24 70.1 °F 68.6 °F 29.73 in Calm     95% 0.03 in 0 W/m2
05:29 70.1 °F 68.6 °F 29.73 in Calm     95% 0.04 in 0 W/m2
05:34 70.1 °F 68.6 °F 29.74 in Calm     95% 0.06 in 0 W/m2
05:39 70.1 °F 68.6 °F 29.73 in Calm     95% 0.07 in 0 W/m2
05:44 70.1 °F 68.6 °F 29.73 in Calm     95% 0.07 in 0 W/m2
05:49 70.1 °F 68.6 °F 29.73 in Calm     95% 0.07 in 0 W/m2
05:54 70.1 °F 68.6 °F 29.73 in Calm     95% 0.08 in 0 W/m2
05:59 70.1 °F 68.6 °F 29.73 in Calm     95% 0.08 in 0 W/m2
06:04 70.1 °F 68.6 °F 29.73 in Calm     95% 0.09 in 0 W/m2
06:09 70.1 °F 68.6 °F 29.73 in Calm     95% 0.11 in 0 W/m2
06:14 70.1 °F 68.6 °F 29.74 in Calm     95% 0.13 in 0 W/m2
06:19 70.1 °F 68.6 °F 29.74 in Calm     95% 0.15 in 0 W/m2
06:24 70.1 °F 68.6 °F 29.74 in Calm     95% 0.17 in 0 W/m2
06:29 70.1 °F 68.6 °F 29.74 in Calm     95% 0.19 in 0 W/m2
06:34 70.2 °F 68.7 °F 29.74 in Calm     95% 0.19 in 0 W/m2
06:39 70.2 °F 68.9 °F 29.73 in Calm     95.7% 0.18 in 0 W/m2
06:44 70.3 °F 69.1 °F 29.74 in Calm     96% 0.20 in 0 W/m2
06:49 70.3 °F 69.1 °F 29.75 in Calm     96% 0.22 in 0 W/m2
06:54 70.3 °F 69.1 °F 29.75 in Calm     96% 0.23 in 0 W/m2
06:59 70.3 °F 69.1 °F 29.74 in Calm     96% 0.25 in 0 W/m2
07:04 70.4 °F 69.2 °F 29.73 in Calm     96% 0.25 in 0 W/m2
07:09 70.4 °F 69.2 °F 29.73 in Calm   1 mph 96% 0.24 in 0 W/m2
07:14 70.4 °F 69.2 °F 29.73 in Calm   1 mph 96% 0.25 in 0 W/m2
07:19 70.4 °F 69.2 °F 29.73 in Calm   1 mph 96% 0.28 in 0 W/m2
07:24 70.4 °F 69.2 °F 29.73 in Calm   1 mph 96% 0.31 in 7 W/m2
07:29 70.3 °F 69.1 °F 29.73 in Calm   1 mph 96% 0.33 in 12 W/m2
07:34 70.4 °F 69.2 °F 29.73 in Calm   1 mph 96% 0.33 in 23 W/m2
07:39 70.4 °F 69.2 °F 29.73 in Calm     96% 0.24 in 28 W/m2
07:44 70.4 °F 69.2 °F 29.73 in Calm     96% 0.24 in 28 W/m2
07:49 70.4 °F 69.2 °F 29.73 in Calm     96% 0.24 in 35 W/m2
07:54 70.4 °F 69.2 °F 29.72 in Calm     96% 0.24 in 42 W/m2
07:59 70.4 °F 69.2 °F 29.72 in Calm     96% 0.24 in 49 W/m2
08:00 70.4 °F 69.2 °F 29.72 in Calm     96% 0.24 in 49 W/m2
08:09 70.5 °F 69.3 °F 29.73 in Calm     96% 0.24 in 51 W/m2
08:14 70.5 °F 69.3 °F 29.73 in Calm     96% 0.24 in 58 W/m2
08:19 70.5 °F 69.3 °F 29.73 in Calm     96% 0.24 in 58 W/m2
08:24 70.6 °F 69.4 °F 29.73 in Calm     96% 0.24 in 86 W/m2
08:29 70.8 °F 69.6 °F 29.73 in Calm     96% 0.24 in 86 W/m2
08:34 70.9 °F 69.8 °F 29.74 in Calm     96% 0.24 in 46 W/m2
08:39 71 °F 69.8 °F 29.74 in Calm     96% 0.01 in 54 W/m2
08:44 71 °F 69.8 °F 29.74 in Calm     96% 0.01 in 86 W/m2
08:49 71.1 °F 69.9 °F 29.74 in Calm     96% 0.01 in 109 W/m2
08:54 71.1 °F 69.9 °F 29.74 in Calm     96% 0.01 in 113 W/m2
08:59 71.2 °F 70 °F 29.75 in Calm     96% 0.01 in 118 W/m2
09:04 71.4 °F 70.2 °F 29.75 in Calm     96% 0.01 in 114 W/m2
09:09 71.5 °F 70.3 °F 29.75 in Calm     96% 0.00 in 65 W/m2
09:14 71.5 °F 70.3 °F 29.75 in Calm     96% 0.00 in 74 W/m2
09:19 71.6 °F 70.4 °F 29.75 in Calm     96% 0.00 in 81 W/m2
09:24 71.6 °F 70.4 °F 29.75 in Calm     96% 0.00 in 98 W/m2
09:29 71.6 °F 70.4 °F 29.75 in Calm     96% 0.00 in 128 W/m2
09:34 71.5 °F 70.3 °F 29.75 in Calm     96% 0.00 in 132 W/m2
09:39 71.6 °F 70.4 °F 29.75 in Calm     96% 0.00 in 163 W/m2
09:44 71.7 °F 70.5 °F 29.75 in Calm     96% 0.00 in 163 W/m2
09:49 71.9 °F 70.7 °F 29.75 in Calm     96% 0.00 in 167 W/m2
09:54 72.1 °F 70.9 °F 29.75 in Calm     96% 0.00 in 403 W/m2
09:59 72.2 °F 71 °F 29.75 in Calm     96% 0.00 in 292 W/m2
10:04 72.2 °F 71 °F 29.75 in Calm     96% 0.00 in 220 W/m2
10:09 72.1 °F 70.9 °F 29.75 in Calm     96% 0.00 in 255 W/m2
10:14 72.1 °F 70.9 °F 29.75 in Calm     96% 0.00 in 244 W/m2
10:19 72.3 °F 71.1 °F 29.75 in Calm   1 mph 96% 0.00 in 343 W/m2
10:24 72.4 °F 71.2 °F 29.74 in Calm   1 mph 96% 0.00 in 290 W/m2
10:29 72.6 °F 71.4 °F 29.74 in Calm   1 mph 96% 0.00 in 322 W/m2
10:34 72.8 °F 71.6 °F 29.74 in Calm   1 mph 96% 0.00 in 322 W/m2
10:39 72.8 °F 71.6 °F 29.74 in Calm     96% 0.00 in 330 W/m2
10:44 73 °F 71.8 °F 29.74 in Calm     96% 0.00 in 316 W/m2
10:49 73.1 °F 71.9 °F 29.74 in Calm     96% 0.00 in 316 W/m2
10:54 73.1 °F 71.9 °F 29.74 in Calm     96% 0.00 in 311 W/m2
10:59 73.3 °F 71.8 °F 29.74 in Calm     95.1% 0.00 in 367 W/m2
11:04 73.6 °F 72 °F 29.73 in Calm     95% 0.00 in 334 W/m2
11:09 73.8 °F 72.2 °F 29.73 in Calm     95% 0.00 in 334 W/m2
11:14 74 °F 72.1 °F 29.73 in Calm     94% 0.00 in 860 W/m2
11:19 74.6 °F 72.7 °F 29.73 in Calm   1 mph 93.9% 0.00 in 902 W/m2
11:24 74.9 °F 72.2 °F 29.73 in Calm   1 mph 91.4% 0.00 in 396 W/m2
11:29 75.4 °F 72.6 °F 29.73 in Calm   1 mph 90.9% 0.00 in 404 W/m2
11:34 75.8 °F 72.6 °F 29.73 in Calm   1 mph 89.7% 0.00 in 360 W/m2
11:39 76 °F 71.9 °F 29.73 in Calm   2 mph 87.1% 0.00 in 364 W/m2
11:44 76.2 °F 71.9 °F 29.73 in NW 0.2 mph 4 mph 86.5% 0.00 in 425 W/m2
11:49 76.3 °F 71.9 °F 29.72 in Calm   4 mph 86.4% 0.00 in 424 W/m2
11:54 76.7 °F 72.5 °F 29.72 in Calm   4 mph 87.1% 0.00 in 464 W/m2
11:59 76.9 °F 72.1 °F 29.72 in Calm   4 mph 85.1% 0.00 in 378 W/m2
12:00 77 °F 71.8 °F 29.72 in Calm   4 mph 84% 0.00 in 378 W/m2
12:09 77.2 °F 72 °F 29.72 in Calm     84% 0.00 in 413 W/m2
12:14 77.5 °F 72.3 °F 29.71 in NW 0.2 mph 3 mph 84% 0.00 in 385 W/m2
12:19 77.7 °F 72 °F 29.71 in Calm   3 mph 82.8% 0.00 in 360 W/m2
12:24 77.8 °F 72.4 °F 29.71 in Calm   3 mph 83.3% 0.00 in 257 W/m2
12:29 77.9 °F 72.3 °F 29.71 in Calm   3 mph 82.7% 0.00 in 153 W/m2
12:34 77.9 °F 71.9 °F 29.71 in NW 0.1 mph 3 mph 82% 0.00 in 158 W/m2
12:39 77.8 °F 71.8 °F 29.71 in NW 0.3 mph 4 mph 82% 0.00 in 193 W/m2
12:44 77.6 °F 71.7 °F 29.70 in Calm   4 mph 82.1% 0.00 in 209 W/m2
12:49 77.6 °F 72 °F 29.70 in Calm   4 mph 83% 0.00 in 311 W/m2
12:54 77.7 °F 72.1 °F 29.70 in Calm   4 mph 83% 0.00 in 322 W/m2
12:59 77.8 °F 72.3 °F 29.70 in Calm   4 mph 83% 0.00 in 302 W/m2
13:04 77.9 °F 72.3 °F 29.71 in NNW 0.3 mph 4 mph 82.9% 0.00 in 179 W/m2
13:09 77.9 °F 72.3 °F 29.70 in North 0.1 mph 3 mph 82.8% 0.00 in 183 W/m2
13:14 77.8 °F 72.3 °F 29.70 in Calm   3 mph 83% 0.00 in 185 W/m2
13:19 77.8 °F 72.4 °F 29.70 in Calm   3 mph 83.5% 0.00 in 160 W/m2
13:24 77.8 °F 72.2 °F 29.70 in Calm   3 mph 83% 0.00 in 155 W/m2
13:29 77.8 °F 72.5 °F 29.70 in Calm   3 mph 83.7% 0.00 in 292 W/m2
13:34 77.8 °F 72.3 °F 29.70 in Calm   3 mph 83.3% 0.00 in 292 W/m2
13:39 77.9 °F 72.3 °F 29.70 in NNE 0.1 mph 2 mph 83% 0.00 in 223 W/m2
13:44 77.9 °F 72.3 °F 29.70 in Calm   2 mph 83% 0.00 in 281 W/m2
13:49 78 °F 72.4 °F 29.69 in Calm   2 mph 83% 0.00 in 320 W/m2
13:54 78.1 °F 72.5 °F 29.69 in Calm   2 mph 83% 0.00 in 325 W/m2
13:59 78.4 °F 73 °F 29.69 in Calm   2 mph 83.5% 0.00 in 313 W/m2
14:04 78.6 °F 73 °F 29.69 in Calm   2 mph 83% 0.00 in 234 W/m2
14:09 78.6 °F 72.7 °F 29.69 in NE 0.1 mph 1 mph 82% 0.00 in 200 W/m2
14:14 78.6 °F 72.6 °F 29.69 in ENE 0.1 mph 3 mph 82% 0.00 in 186 W/m2
14:19 78.6 °F 72.7 °F 29.69 in Calm   3 mph 82% 0.00 in 165 W/m2
14:24 78.6 °F 72.7 °F 29.68 in Calm   3 mph 82% 0.00 in 104 W/m2
14:29 78.5 °F 72.6 °F 29.68 in Calm   3 mph 82% 0.00 in 244 W/m2
14:34 78.5 °F 72.8 °F 29.68 in Calm   3 mph 82.6% 0.00 in 309 W/m2
14:39 78.7 °F 73.1 °F 29.67 in ENE 0.3 mph 4 mph 83% 0.00 in 302 W/m2
14:44 78.9 °F 73.1 °F 29.67 in Calm   4 mph 82.5% 0.00 in 360 W/m2
14:49 79.1 °F 73.1 °F 29.67 in ENE 0.2 mph 4 mph 82% 0.00 in 236 W/m2
14:54 79.2 °F 73.2 °F 29.67 in Calm   4 mph 82% 0.00 in 475 W/m2
14:59 79.3 °F 73.3 °F 29.67 in East 0.1 mph 4 mph 82% 0.00 in 475 W/m2
15:04 79.5 °F 73.5 °F 29.67 in South 0.2 mph 4 mph 82% 0.00 in 744 W/m2
15:09 79.8 °F 73.6 °F 29.66 in Calm   4 mph 81.3% 0.00 in 666 W/m2
15:14 80.1 °F 73.7 °F 29.66 in Calm   4 mph 81% 0.00 in 174 W/m2
15:19 80.1 °F 73.4 °F 29.66 in South 0.1 mph 4 mph 80% 0.00 in 162 W/m2
15:24 80.1 °F 73.6 °F 29.66 in Calm   4 mph 80.6% 0.00 in 163 W/m2
15:29 79.9 °F 73.2 °F 29.66 in SE 0.2 mph 4 mph 80.1% 0.00 in 260 W/m2
15:34 80 °F 73.7 °F 29.66 in SE 0.1 mph 5 mph 81.2% 0.00 in 216 W/m2
15:39 80 °F 73.6 °F 29.66 in SE 0.2 mph 5 mph 80.8% 0.00 in 102 W/m2
15:44 79.8 °F 73.3 °F 29.66 in SE 0.1 mph 5 mph 80.5% 0.00 in 733 W/m2
15:49 80 °F 73.9 °F 29.66 in SW 0.1 mph 5 mph 81.7% 0.00 in 592 W/m2
15:54 80.2 °F 73.8 °F 29.65 in SE 0.3 mph 5 mph 80.9% 0.00 in 135 W/m2
15:59 80.1 °F 73.4 °F 29.65 in South 0.1 mph 5 mph 80.3% 0.00 in 123 W/m2
16:09 79.8 °F 73.4 °F 29.65 in ESE 0.5 mph 5 mph 81% 0.00 in 128 W/m2
16:14 79.6 °F 73.4 °F 29.65 in Calm   5 mph 81.3% 0.00 in 176 W/m2
16:19 79.6 °F 73.6 °F 29.65 in Calm   5 mph 82% 0.00 in 171 W/m2
16:24 79.6 °F 73.6 °F 29.65 in Calm   5 mph 82% 0.00 in 162 W/m2
16:29 79.7 °F 73.8 °F 29.64 in Calm   5 mph 82.2% 0.00 in 171 W/m2
16:34 79.8 °F 73.8 °F 29.64 in ESE 0.6 mph 5 mph 82% 0.00 in 200 W/m2
16:39 80 °F 74 °F 29.64 in ESE 0.2 mph 5 mph 82.2% 0.00 in 118 W/m2
16:44 80 °F 74 °F 29.64 in SE 0.1 mph 5 mph 82% 0.00 in 104 W/m2
16:49 79.9 °F 73.9 °F 29.64 in SE 0.5 mph 5 mph 82% 0.00 in 90 W/m2
16:54 79.7 °F 73.8 °F 29.64 in SE 1.2 mph 6 mph 82% 0.00 in 102 W/m2
16:59 79.6 °F 73.6 °F 29.63 in ESE 0.1 mph 6 mph 82% 0.00 in 95 W/m2
17:04 79.5 °F 73.6 °F 29.63 in South 0.1 mph 6 mph 82.3% 0.00 in 139 W/m2
17:09 79.5 °F 73.9 °F 29.63 in WSW 0.2 mph 4 mph 83% 0.00 in 141 W/m2
17:14 79.5 °F 73.9 °F 29.63 in Calm   4 mph 83% 0.00 in 149 W/m2
17:19 79.5 °F 73.9 °F 29.63 in Calm   4 mph 83% 0.00 in 90 W/m2
17:24 79.5 °F 73.9 °F 29.64 in Calm   4 mph 83% 0.00 in 79 W/m2
17:29 79.5 °F 73.9 °F 29.64 in Calm   4 mph 83% 0.00 in 77 W/m2
17:34 79.5 °F 73.9 °F 29.64 in Calm   4 mph 83% 0.00 in 104 W/m2
17:39 79.4 °F 73.8 °F 29.64 in Calm     83% 0.00 in 109 W/m2
17:44 79.4 °F 73.8 °F 29.64 in Calm     83% 0.00 in 95 W/m2
17:49 79.3 °F 73.7 °F 29.64 in Calm     83% 0.00 in 93 W/m2
17:54 79.3 °F 73.6 °F 29.64 in Calm     82.8% 0.00 in 93 W/m2
17:59 79.2 °F 73.2 °F 29.64 in SW 0.2 mph 3 mph 82% 0.00 in 98 W/m2
18:04 79.2 °F 72.9 °F 29.64 in Calm   3 mph 81% 0.00 in 62 W/m2
18:09 79.1 °F 72.8 °F 29.64 in South 0.1 mph 3 mph 81% 0.00 in 39 W/m2
18:14 79 °F 72.7 °F 29.64 in South 0.1 mph 3 mph 81% 0.00 in 35 W/m2
18:19 78.9 °F 72.6 °F 29.64 in Calm   3 mph 81% 0.00 in 25 W/m2
18:24 78.8 °F 72.4 °F 29.64 in Calm   3 mph 81% 0.00 in 23 W/m2
18:29 78.6 °F 72.3 °F 29.64 in Calm   3 mph 81% 0.00 in 9 W/m2
18:34 78.4 °F 72.2 °F 29.65 in Calm   3 mph 81.2% 0.00 in 7 W/m2
18:39 78.3 °F 72.4 °F 29.65 in Calm     82% 0.00 in 5 W/m2
18:44 78.1 °F 72.2 °F 29.65 in Calm     82% 0.00 in 0 W/m2
18:49 78 °F 72.1 °F 29.65 in Calm   1 mph 82.1% 0.00 in 0 W/m2
18:54 77.9 °F 72.3 °F 29.65 in Calm   1 mph 83% 0.00 in 0 W/m2
18:59 77.8 °F 72.4 °F 29.65 in Calm   1 mph 83.6% 0.00 in 0 W/m2
19:04 77.7 °F 72.5 °F 29.65 in Calm   1 mph 84% 0.00 in 0 W/m2
19:09 77.6 °F 72.4 °F 29.65 in Calm     84.2% 0.00 in 0 W/m2
19:14 77.4 °F 72.6 °F 29.65 in Calm     85% 0.00 in 0 W/m2
19:19 77.3 °F 72.4 °F 29.65 in Calm   3 mph 85% 0.00 in 0 W/m2
19:24 77.1 °F 72.3 °F 29.65 in Calm   3 mph 85% 0.00 in 0 W/m2
19:29 77 °F 72.5 °F 29.66 in South 0.1 mph 3 mph 85.9% 0.00 in 0 W/m2
19:34 76.9 °F 72.4 °F 29.66 in Calm   3 mph 86% 0.00 in 0 W/m2
19:39 76.8 °F 72.3 °F 29.66 in Calm     86% 0.00 in 0 W/m2
19:44 76.7 °F 72.2 °F 29.66 in Calm     86% 0.00 in 0 W/m2
19:49 76.5 °F 72.1 °F 29.67 in West 1.7 mph 9 mph 86.3% 0.00 in 0 W/m2
19:54 76.2 °F 71.5 °F 29.67 in West 1.6 mph 9 mph 85.5% 0.00 in 0 W/m2
19:59 75.8 °F 71 °F 29.67 in West 0.3 mph 9 mph 85% 0.00 in 0 W/m2
20:00 75.7 °F 70.9 °F 29.67 in Calm   9 mph 85% 0.00 in 0 W/m2
20:09 75.5 °F 70.7 °F 29.68 in West 0.6 mph 2 mph 85% 0.00 in 0 W/m2
20:14 75.4 °F 70.5 °F 29.68 in West 1.2 mph 5 mph 85% 0.00 in 0 W/m2
20:19 75.2 °F 70.3 °F 29.68 in WNW 1.2 mph 7 mph 84.8% 0.00 in 0 W/m2
20:24 75 °F 69.8 °F 29.68 in WNW 1.1 mph 7 mph 84% 0.00 in 0 W/m2
20:29 74.7 °F 69.5 °F 29.68 in WNW 1.2 mph 7 mph 84% 0.00 in 0 W/m2
20:34 74.5 °F 69.3 °F 29.70 in Calm   7 mph 84% 0.00 in 0 W/m2
20:39 74.3 °F 69.1 °F 29.70 in West 0.7 mph 5 mph 84% 0.00 in 0 W/m2
20:44 74.1 °F 68.9 °F 29.70 in Calm   5 mph 84% 0.00 in 0 W/m2
20:49 73.9 °F 68.8 °F 29.71 in Calm   5 mph 84% 0.00 in 0 W/m2
20:54 73.7 °F 68.7 °F 29.71 in Calm   5 mph 84.2% 0.00 in 0 W/m2
20:59 73.6 °F 68.8 °F 29.71 in Calm   5 mph 85% 0.00 in 0 W/m2
21:04 73.4 °F 68.7 °F 29.71 in Calm   5 mph 85% 0.00 in 0 W/m2
21:09 73.3 °F 68.5 °F 29.71 in Calm     85% 0.00 in 0 W/m2
21:14 73.1 °F 68.4 °F 29.71 in Calm     85.2% 0.00 in 0 W/m2
21:19 73 °F 68.4 °F 29.71 in Calm     85.5% 0.00 in 0 W/m2
21:24 72.9 °F 68.4 °F 29.71 in Calm     86% 0.00 in 0 W/m2
21:29 72.7 °F 68.3 °F 29.72 in Calm     86% 0.00 in 0 W/m2
21:34 72.6 °F 68.3 °F 29.72 in Calm     86.3% 0.00 in 0 W/m2
21:39 72.4 °F 68.3 °F 29.72 in Calm     87% 0.00 in 0 W/m2
21:44 72.3 °F 68.2 °F 29.72 in Calm     87% 0.00 in 0 W/m2
21:49 72.1 °F 68 °F 29.72 in Calm     87% 0.00 in 0 W/m2
21:54 71.9 °F 67.8 °F 29.72 in Calm     87% 0.00 in 0 W/m2
21:59 71.7 °F 67.7 °F 29.72 in Calm     87% 0.00 in 0 W/m2
22:04 71.6 °F 67.7 °F 29.72 in Calm   1 mph 87.7% 0.00 in 0 W/m2
22:09 71.5 °F 67.7 °F 29.72 in WNW 0.2 mph 5 mph 88% 0.00 in 0 W/m2
22:14 71.3 °F 67.6 °F 29.72 in WNW 0.1 mph 5 mph 88% 0.00 in 0 W/m2
22:19 71.2 °F 67.4 °F 29.72 in NW 1.5 mph 6 mph 87.9% 0.00 in 0 W/m2
22:24 70.9 °F 66.6 °F 29.72 in NW 2 mph 10 mph 86.4% 0.00 in 0 W/m2
22:29 70.6 °F 66 °F 29.72 in NW 0.7 mph 10 mph 85.3% 0.00 in 0 W/m2
22:34 70.4 °F 65.4 °F 29.72 in WNW 2.1 mph 10 mph 84.4% 0.00 in 0 W/m2
22:39 70.1 °F 64.4 °F 29.72 in West 2.6 mph 11 mph 82.1% 0.00 in 0 W/m2
22:44 69.9 °F 63.8 °F 29.73 in Calm   11 mph 81% 0.00 in 0 W/m2
22:49 69.9 °F 63.8 °F 29.73 in West 2.1 mph 11 mph 81% 0.00 in 0 W/m2
22:54 69.7 °F 63.3 °F 29.73 in WNW 0.6 mph 11 mph 80.1% 0.00 in 0 W/m2
22:59 69.5 °F 62.9 °F 29.73 in West 0.3 mph 11 mph 79.4% 0.00 in 0 W/m2
23:04 69.3 °F 62.5 °F 29.74 in West 0.4 mph 11 mph 79% 0.00 in 0 W/m2
23:09 69 °F 61.5 °F 29.74 in NW 0.8 mph 6 mph 77% 0.00 in 0 W/m2
23:14 68.7 °F 60.3 °F 29.74 in WNW 1.6 mph 6 mph 74.5% 0.00 in 0 W/m2
23:19 68.5 °F 59.6 °F 29.74 in WNW 1.6 mph 6 mph 73.4% 0.00 in 0 W/m2
23:24 68.3 °F 59.3 °F 29.74 in WNW 0.4 mph 6 mph 73% 0.00 in 0 W/m2
23:29 68.1 °F 59.1 °F 29.74 in WNW 0.2 mph 6 mph 73% 0.00 in 0 W/m2
23:34 67.9 °F 59.1 °F 29.74 in WNW 1.3 mph 9 mph 73.4% 0.00 in 0 W/m2
23:39 67.7 °F 58.8 °F 29.74 in WNW 0.8 mph 9 mph 73.3% 0.00 in 0 W/m2
23:44 67.4 °F 58.9 °F 29.75 in West 0.7 mph 9 mph 74% 0.00 in 0 W/m2
23:49 67.2 °F 58.6 °F 29.74 in WNW 0.6 mph 9 mph 74% 0.00 in 0 W/m2
23:54 66.9 °F 58.3 °F 29.75 in West 0.7 mph 9 mph 74% 0.00 in 0 W/m2
23:59 66.6 °F 58.4 °F 29.74 in WNW 2.2 mph 9 mph 74.9% 0.00 in 0 W/m2
Hartford County Weather
Compliments of Weather Underground - 2 mb